»·PEaware :: N314TW KHPN-CYQY

N314TW :: KHPN-CYQY

FLIGHT INFORMATION

Flight Status: Arrived
Operator: Privately registered:
United States
More flights under this callsign
Pilot: Timothy W. (9658)
Aircraft: ECLIPSE 500
(EA50)
More flights by this aircraft type
Origin: KHPN Westchester Co
United States
Destination: CYQY Sydney
Canada
More flights between these airports :: More routes between these airports
Route: CMK J75 BOS J575 YQY
File this flight plan on PilotEdge
Remarks:
Altitude:
(Current/Filed)
35,000ft
Speed:
(Current/Filed)
353kts
Departed: 09-Apr-17 08:39 AM
Arrived: 09-Apr-17 11:20 AM
Distance/Time
Traveled:
666nm/2:41
Distance/Time
To Go:
Arrived

Flight Plot

Page will automatically refresh every two minutes.

Flight plan parsing failed; only flown route is shown


Map Options




Map Legend


Flown Route
Filed Route
Departure Airport
Arrival Airport
Navaid (VOR, NDB)
Fix

Horizontal Profiles

Position Reports

Time Latitude Longitude Heading Altitude Ground
Speed
09-Apr-17 08:38 41.060496 -73.700589 235 389ft 1kts
09-Apr-17 08:39 41.060195 -73.701541 328 389ft 4kts
09-Apr-17 08:40 41.081369 -73.717653 328 1002ft 153kts
09-Apr-17 08:41 41.099163 -73.773475 300 2821ft 178kts
09-Apr-17 08:42 41.140066 -73.756303 39 4767ft 193kts
09-Apr-17 08:43 41.178797 -73.708196 38 6958ft 199kts
09-Apr-17 08:44 41.219385 -73.657553 38 9212ft 204kts
09-Apr-17 08:45 41.260839 -73.605674 37 11268ft 209kts
09-Apr-17 08:46 41.302810 -73.551230 38 13157ft 214kts
09-Apr-17 08:47 41.345199 -73.494618 37 14915ft 218kts
09-Apr-17 08:48 41.388079 -73.437321 36 16530ft 221kts
09-Apr-17 08:49 41.431679 -73.378978 35 18024ft 224kts
09-Apr-17 08:50 41.475811 -73.319814 35 19405ft 227kts
09-Apr-17 08:51 41.520307 -73.259822 34 20680ft 229kts
09-Apr-17 08:52 41.565076 -73.199477 34 21877ft 231kts
09-Apr-17 08:53 41.610119 -73.138702 33 23091ft 231kts
09-Apr-17 08:54 41.655092 -73.077909 33 24217ft 231kts
09-Apr-17 08:55 41.699993 -73.017089 33 25260ft 230kts
09-Apr-17 08:56 41.744847 -72.956204 33 26226ft 230kts
09-Apr-17 08:57 41.789842 -72.894995 33 27065ft 232kts
09-Apr-17 08:58 41.835493 -72.833627 33 27836ft 234kts
09-Apr-17 08:59 41.881273 -72.771419 33 28559ft 236kts
09-Apr-17 09:00 41.927323 -72.708486 33 29235ft 238kts
09-Apr-17 09:01 41.957823 -72.623475 57 29831ft 266kts
09-Apr-17 09:02 41.981543 -72.529341 57 30418ft 267kts
09-Apr-17 09:03 42.005432 -72.434411 57 30963ft 269kts
09-Apr-17 09:04 42.029412 -72.338808 56 31482ft 271kts
09-Apr-17 09:05 42.053420 -72.242735 56 31966ft 272kts
09-Apr-17 09:06 42.077329 -72.145943 57 32412ft 274kts
09-Apr-17 09:07 42.101345 -72.048397 56 32867ft 274kts
09-Apr-17 09:08 42.124210 -71.955375 55 33672ft 261kts
09-Apr-17 09:09 42.147164 -71.863008 56 34062ft 263kts
09-Apr-17 09:10 42.170422 -71.769511 56 34606ft 258kts
09-Apr-17 09:11 42.192974 -71.677640 56 35001ft 260kts
09-Apr-17 09:12 42.215529 -71.585002 56 35159ft 261kts
09-Apr-17 09:13 42.237937 -71.492423 56 35159ft 260kts
09-Apr-17 09:14 42.260377 -71.399302 56 35157ft 261kts
09-Apr-17 09:15 42.282676 -71.306385 56 35154ft 261kts
09-Apr-17 09:16 42.304986 -71.213024 56 35151ft 261kts
09-Apr-17 09:17 42.327179 -71.119778 56 35149ft 261kts
09-Apr-17 09:18 42.349237 -71.026716 56 35148ft 261kts
09-Apr-17 09:19 42.375178 -70.935873 51 35148ft 258kts
09-Apr-17 09:20 42.404280 -70.846967 52 35148ft 262kts
09-Apr-17 09:21 42.433972 -70.756436 53 35142ft 265kts
09-Apr-17 09:22 42.463417 -70.665867 53 35137ft 264kts
09-Apr-17 09:23 42.492930 -70.574728 53 35131ft 264kts
09-Apr-17 09:24 42.522281 -70.483727 53 35139ft 264kts
09-Apr-17 09:25 42.551670 -70.392322 53 35154ft 264kts
09-Apr-17 09:26 42.580890 -70.301119 53 35177ft 265kts
09-Apr-17 09:27 42.610028 -70.209445 53 35174ft 265kts
09-Apr-17 09:28 42.638620 -70.118887 53 35174ft 262kts
09-Apr-17 09:29 42.667460 -70.027919 53 35181ft 263kts
09-Apr-17 09:30 42.695992 -69.936476 53 35179ft 263kts
09-Apr-17 09:31 42.724731 -69.845498 54 35179ft 263kts
09-Apr-17 09:32 42.753440 -69.754283 54 35177ft 264kts
09-Apr-17 09:33 42.782029 -69.662451 54 35178ft 264kts
09-Apr-17 09:34 42.810547 -69.570343 54 35175ft 264kts
09-Apr-17 09:35 42.838840 -69.478519 54 35156ft 264kts
09-Apr-17 09:36 42.867119 -69.386405 54 35129ft 263kts
09-Apr-17 09:37 42.895395 -69.293940 53 35113ft 263kts
09-Apr-17 09:38 42.923327 -69.202281 53 35110ft 262kts
09-Apr-17 09:39 42.951167 -69.110611 53 35111ft 261kts
09-Apr-17 09:40 42.979430 -69.017582 54 35112ft 269kts
09-Apr-17 09:41 43.008166 -68.922379 56 35111ft 273kts
09-Apr-17 09:42 43.037320 -68.826710 56 35109ft 273kts
09-Apr-17 09:43 43.066213 -68.730960 56 35107ft 273kts
09-Apr-17 09:44 43.094904 -68.635011 56 35101ft 273kts
09-Apr-17 09:45 43.123465 -68.538993 56 35087ft 272kts
09-Apr-17 09:46 43.151906 -68.442903 56 35082ft 272kts
09-Apr-17 09:47 43.180284 -68.346740 57 35079ft 273kts
09-Apr-17 09:48 43.208559 -68.250477 56 35081ft 273kts
09-Apr-17 09:49 43.236764 -68.154114 57 35079ft 272kts
09-Apr-17 09:50 43.264811 -68.057913 57 35080ft 273kts
09-Apr-17 09:51 43.292922 -67.961114 56 35075ft 272kts
09-Apr-17 09:52 43.321072 -67.864596 57 35077ft 273kts
09-Apr-17 09:53 43.349363 -67.767957 57 35077ft 274kts
09-Apr-17 09:54 43.377382 -67.670849 57 35076ft 273kts
09-Apr-17 09:55 43.405240 -67.573577 57 35070ft 273kts
09-Apr-17 09:56 43.433009 -67.476174 57 35065ft 273kts
09-Apr-17 09:57 43.460623 -67.378888 57 35066ft 275kts
09-Apr-17 09:58 43.488227 -67.281255 57 35062ft 273kts
09-Apr-17 09:59 43.515710 -67.183696 57 35058ft 274kts
09-Apr-17 10:00 43.544028 -67.083282 60 35059ft 289kts
09-Apr-17 10:01 43.573001 -66.977941 64 35068ft 297kts
09-Apr-17 10:02 43.602338 -66.871520 63 35062ft 296kts
09-Apr-17 10:03 43.632502 -66.766543 63 35064ft 297kts
09-Apr-17 10:04 43.662690 -66.660871 63 35062ft 297kts
09-Apr-17 10:05 43.692782 -66.555026 63 35067ft 297kts
09-Apr-17 10:06 43.722824 -66.448869 63 35061ft 297kts
09-Apr-17 10:07 43.747771 -66.360399 63 35064ft 297kts
09-Apr-17 10:08 43.782606 -66.236297 63 35065ft 296kts
09-Apr-17 10:09 43.807365 -66.147730 63 35067ft 297kts
09-Apr-17 10:10 43.848454 -66.028671 54 35066ft 293kts
09-Apr-17 10:11 43.889568 -65.931434 54 35068ft 292kts
09-Apr-17 10:12 43.931099 -65.834793 54 35060ft 293kts
09-Apr-17 10:13 43.972527 -65.737933 54 35061ft 293kts
09-Apr-17 10:14 44.006938 -65.656887 54 35061ft 293kts
09-Apr-17 10:15 44.054919 -65.543239 54 35061ft 293kts
09-Apr-17 10:16 44.089140 -65.461875 54 35065ft 293kts
09-Apr-17 10:17 44.137048 -65.347577 54 35065ft 292kts
09-Apr-17 10:18 44.171128 -65.266015 54 35059ft 293kts
09-Apr-17 10:19 44.218658 -65.151812 54 35033ft 293kts
09-Apr-17 10:20 44.252646 -65.069895 54 35021ft 293kts
09-Apr-17 10:21 44.300521 -64.954252 55 35019ft 300kts
09-Apr-17 10:22 44.335626 -64.869678 57 35016ft 304kts
09-Apr-17 10:23 44.378216 -64.767188 58 35017ft 306kts
09-Apr-17 10:24 44.420351 -64.664357 58 35017ft 305kts
09-Apr-17 10:25 44.462102 -64.561984 58 35018ft 305kts
09-Apr-17 10:26 44.510943 -64.441711 58 35018ft 305kts
09-Apr-17 10:27 44.545884 -64.355343 58 35019ft 305kts
09-Apr-17 10:28 44.587446 -64.252058 57 35022ft 300kts
09-Apr-17 10:29 44.628405 -64.150241 57 35002ft 300kts
09-Apr-17 10:30 44.669163 -64.048444 57 34983ft 300kts
09-Apr-17 10:31 44.709131 -63.945417 58 34983ft 300kts
09-Apr-17 10:32 44.749721 -63.842989 58 34980ft 300kts
09-Apr-17 10:33 44.790638 -63.740275 58 34981ft 301kts
09-Apr-17 10:34 44.831133 -63.637844 58 34981ft 301kts
09-Apr-17 10:35 44.871575 -63.535051 58 34981ft 301kts
09-Apr-17 10:36 44.911955 -63.432003 58 34982ft 301kts
09-Apr-17 10:37 44.952017 -63.328413 58 34982ft 301kts
09-Apr-17 10:38 44.991921 -63.225214 58 34982ft 299kts
09-Apr-17 10:39 45.031725 -63.122241 57 34571ft 300kts
09-Apr-17 10:40 45.071071 -63.020291 58 33377ft 295kts
09-Apr-17 10:41 45.110021 -62.918571 59 32187ft 293kts
09-Apr-17 10:42 45.148689 -62.818713 60 30983ft 287kts
09-Apr-17 10:43 45.186252 -62.720843 60 29779ft 280kts
09-Apr-17 10:44 45.222920 -62.624608 60 28573ft 274kts
09-Apr-17 10:45 45.258563 -62.530638 60 27373ft 268kts
09-Apr-17 10:46 45.293392 -62.438481 59 26173ft 263kts
09-Apr-17 10:47 45.327269 -62.348531 59 24980ft 257kts
09-Apr-17 10:48 45.360520 -62.259950 59 23781ft 251kts
09-Apr-17 10:49 45.392698 -62.173954 59 22594ft 246kts
09-Apr-17 10:50 45.424196 -62.089516 59 21405ft 241kts
09-Apr-17 10:51 45.453810 -62.005152 62 20208ft 236kts
09-Apr-17 10:52 45.480820 -61.921096 62 19013ft 231kts
09-Apr-17 10:53 45.507580 -61.839433 62 18046ft 227kts
09-Apr-17 10:54 45.533747 -61.759177 62 17142ft 223kts
09-Apr-17 10:55 45.559464 -61.679535 62 16235ft 219kts
09-Apr-17 10:56 45.584708 -61.600900 62 15335ft 216kts
09-Apr-17 10:57 45.609418 -61.523660 62 14438ft 212kts
09-Apr-17 10:58 45.633675 -61.447597 62 13542ft 209kts
09-Apr-17 10:59 45.657416 -61.372929 62 12650ft 205kts
09-Apr-17 11:00 45.680818 -61.299115 61 11755ft 202kts
09-Apr-17 11:01 45.703874 -61.226199 62 10860ft 200kts
09-Apr-17 11:02 45.726493 -61.154456 61 9970ft 196kts
09-Apr-17 11:03 45.748917 -61.083133 62 9079ft 195kts
09-Apr-17 11:04 45.771121 -61.012316 63 8188ft 194kts
09-Apr-17 11:05 45.793031 -60.942197 62 7298ft 192kts
09-Apr-17 11:06 45.814766 -60.873104 62 6398ft 190kts
09-Apr-17 11:07 45.836231 -60.805324 63 5496ft 187kts
09-Apr-17 11:08 45.857222 -60.738130 65 4595ft 182kts
09-Apr-17 11:09 45.873520 -60.668638 64 3692ft 182kts
09-Apr-17 11:10 45.893792 -60.602195 63 2808ft 181kts
09-Apr-17 11:11 45.914599 -60.536828 64 2300ft 180kts
09-Apr-17 11:12 45.935419 -60.471678 65 2100ft 179kts
09-Apr-17 11:13 45.956234 -60.406690 64 1901ft 179kts
09-Apr-17 11:14 45.977050 -60.341845 64 1764ft 178kts
09-Apr-17 11:15 46.004142 -60.283460 44 1764ft 177kts
09-Apr-17 11:16 46.038514 -60.232426 44 1763ft 177kts
09-Apr-17 11:17 46.071291 -60.183690 43 1756ft 144kts
09-Apr-17 11:18 46.097107 -60.145294 43 1764ft 132kts
09-Apr-17 11:19 46.122505 -60.107444 43 1147ft 130kts
09-Apr-17 11:20 46.147264 -60.070486 43 446ft 126kts
09-Apr-17 11:21 46.165867 -60.042921 44 196ft 37kts
09-Apr-17 11:22 46.166991 -60.043123 270 195ft 10kts
09-Apr-17 11:23 46.167015 -60.044271 269 195ft 1kts
09-Apr-17 11:24 46.167303 -60.045041 47 194ft 1kts
09-Apr-17 11:25 46.167407 -60.044958 328 194ft 0kts

Navigation Log

Ident Type
Flight plan parsing failed, navigation log unavailable